Time;durP1;ratioP1;P1;durP2;ratioP2;P2;SDS_P1;SDS_P2;PMS_P1;PMS_P2;Temp;Humidity;BMP_temperature;BMP_pressure;BME280_temperature;BME280_humidity;BME280_pressure;Samples;Min_cycle;Max_cycle;Signal;HPM_P1;HPM_P2
2021/10/24 00:08:59;;;;;;;0.20;0.20;;;23.10;63.10;;;;;;31912724;27;20124;-58
2021/10/24 00:24:02;;;;;;;0.20;0.20;;;23.10;63.00;;;;;;31906923;27;20050;-59
2021/10/24 00:39:04;;;;;;;0.43;0.10;;;23.10;63.10;;;;;;31936626;27;20157;-49
2021/10/24 00:54:07;;;;;;;0.10;0.10;;;23.10;62.90;;;;;;31936136;27;20452;-50
2021/10/24 01:09:18;;;;;;;0.10;0.10;;;23.10;62.90;;;;;;32000156;27;20051;-45
2021/10/24 01:24:20;;;;;;;0.22;0.10;;;23.00;62.90;;;;;;31975499;27;20050;-47
2021/10/24 01:39:22;;;;;;;3.42;0.28;;;23.00;62.90;;;;;;31971087;27;20085;-49
2021/10/24 01:54:24;;;;;;;0.10;0.10;;;23.00;62.90;;;;;;31935553;27;20047;-46
2021/10/24 02:09:26;;;;;;;2.47;0.10;;;22.90;63.20;;;;;;31966807;27;20073;-50
2021/10/24 02:24:28;;;;;;;0.20;0.20;;;22.90;63.10;;;;;;31922047;27;20074;-51
2021/10/24 02:39:30;;;;;;;0.10;0.10;;;22.90;63.10;;;;;;31938993;27;20138;-49
2021/10/24 02:54:32;;;;;;;0.17;0.17;;;22.90;63.00;;;;;;31894009;27;20084;-49
2021/10/24 03:09:34;;;;;;;0.10;0.10;;;22.90;63.00;;;;;;31953216;27;20074;-59
2021/10/24 03:24:37;;;;;;;0.45;0.10;;;22.90;63.10;;;;;;31902161;28;20385;-58
2021/10/24 03:39:39;;;;;;;0.98;0.30;;;23.10;63.30;;;;;;31924587;27;20085;-58
2021/10/24 03:54:41;;;;;;;0.40;0.10;;;23.40;63.30;;;;;;31921622;27;20042;-58
2021/10/24 04:09:43;;;;;;;0.10;0.10;;;23.40;63.20;;;;;;31904249;27;20067;-52
2021/10/24 04:24:45;;;;;;;0.20;0.20;;;23.40;63.40;;;;;;31904245;27;20055;-49
2021/10/24 04:39:47;;;;;;;3.22;1.50;;;23.20;63.50;;;;;;31936609;27;20099;-48
2021/10/24 04:54:49;;;;;;;4.47;2.65;;;23.20;63.00;;;;;;31925484;27;20058;-49
2021/10/24 05:09:51;;;;;;;2.25;1.75;;;23.20;62.80;;;;;;31979650;27;20063;-49
2021/10/24 05:24:53;;;;;;;4.50;1.52;;;23.10;63.10;;;;;;31959659;27;20150;-47
2021/10/24 05:39:55;;;;;;;3.70;1.45;;;23.00;63.20;;;;;;31918867;27;20104;-56
2021/10/24 05:54:58;;;;;;;11.82;3.03;;;23.00;63.90;;;;;;31948635;27;20042;-49
2021/10/24 06:10:02;;;;;;;7.25;2.53;;;22.70;55.50;;;;;;31958961;27;20043;-43
2021/10/24 06:25:06;;;;;;;11.48;3.65;;;22.90;60.00;;;;;;31941073;27;20106;-43
2021/10/24 06:40:09;;;;;;;16.73;3.95;;;23.20;57.50;;;;;;31905998;27;20067;-61
2021/10/24 06:55:11;;;;;;;21.90;5.47;;;23.20;57.80;;;;;;31951160;27;20054;-50
2021/10/24 07:10:16;;;;;;;18.98;5.30;;;23.00;55.70;;;;;;31931816;27;20110;-51
2021/10/24 07:25:18;;;;;;;21.50;5.63;;;23.00;54.20;;;;;;31955931;28;20054;-50
2021/10/24 07:40:21;;;;;;;11.85;4.78;;;22.90;55.80;;;;;;31915092;27;20069;-50
2021/10/24 07:55:23;;;;;;;19.35;4.90;;;23.20;56.70;;;;;;31901872;28;20044;-51
2021/10/24 08:10:26;;;;;;;13.55;4.53;;;23.20;57.00;;;;;;31910305;28;20050;-51
2021/10/24 08:25:28;;;;;;;18.02;4.10;;;23.30;58.40;;;;;;31939062;27;20047;-53
2021/10/24 08:40:30;;;;;;;16.08;4.97;;;23.40;59.10;;;;;;31955345;27;20067;-44
2021/10/24 08:55:32;;;;;;;175.57;121.72;;;23.30;59.60;;;;;;31933306;27;20047;-57
2021/10/24 09:10:48;;;;;;;142.10;96.75;;;23.20;59.00;;;;;;31939516;27;20107;-47
2021/10/24 09:25:51;;;;;;;135.68;94.22;;;23.10;59.00;;;;;;31955232;27;20134;-52
2021/10/24 09:40:58;;;;;;;125.35;77.50;;;23.20;61.70;;;;;;31946695;27;20063;-52
2021/10/24 09:56:00;;;;;;;127.70;77.88;;;23.20;62.20;;;;;;31941558;27;20117;-46
2021/10/24 10:11:19;;;;;;;109.50;61.38;;;23.10;62.90;;;;;;31942038;27;20066;-43
2021/10/24 10:26:58;;;;;;;106.63;59.67;;;23.00;63.30;;;;;;31943227;27;20043;-49
2021/10/24 10:42:06;;;;;;;67.00;39.40;;;23.00;63.20;;;;;;31918099;27;20051;-53
2021/10/24 10:57:29;;;;;;;64.20;32.20;;;22.90;60.70;;;;;;31898500;27;20039;-54
2021/10/24 11:12:35;;;;;;;55.58;29.00;;;22.80;61.30;;;;;;31883414;27;20099;-49
2021/10/24 11:27:38;;;;;;;40.40;22.88;;;23.00;62.30;;;;;;31901205;28;20046;-45
2021/10/24 11:43:32;;;;;;;36.42;18.95;;;23.30;61.80;;;;;;31945890;27;20192;-50
2021/10/24 12:13:50;;;;;;;28.85;13.65;;;23.40;62.30;;;;;;31986505;27;20122;-50
2021/10/24 12:28:55;;;;;;;32.72;13.77;;;23.30;62.40;;;;;;31916280;27;20055;-48
2021/10/24 12:43:57;;;;;;;34.00;12.63;;;23.30;62.50;;;;;;31992502;27;20103;-50
2021/10/24 12:58:59;;;;;;;21.75;9.95;;;23.20;63.30;;;;;;31938308;27;20071;-51
2021/10/24 13:14:02;;;;;;;29.00;8.02;;;23.10;60.10;;;;;;31569363;27;9999748;-45
2021/10/24 13:29:06;;;;;;;13.52;6.03;;;22.90;57.40;;;;;;31903253;27;20063;-46
2021/10/24 13:44:08;;;;;;;17.83;6.55;;;22.90;54.80;;;;;;31884227;27;20051;-46
2021/10/24 13:59:10;;;;;;;20.30;7.22;;;22.90;57.30;;;;;;31881046;27;20114;-45
2021/10/24 14:14:12;;;;;;;18.33;6.47;;;23.30;58.30;;;;;;31914633;27;20099;-47
2021/10/24 14:29:14;;;;;;;17.17;6.65;;;23.40;58.60;;;;;;31940807;27;20063;-45
2021/10/24 14:44:16;;;;;;;18.45;6.03;;;23.40;59.10;;;;;;31519527;27;10000436;-44
2021/10/24 14:59:19;;;;;;;18.77;7.97;;;23.40;59.90;;;;;;31923945;27;20031;-46
2021/10/24 15:14:22;;;;;;;25.63;7.85;;;23.40;61.00;;;;;;31935755;27;20071;-48
2021/10/24 15:29:25;;;;;;;11.98;6.93;;;23.30;61.70;;;;;;31889157;27;20076;-45
2021/10/24 15:44:27;;;;;;;14.85;6.20;;;23.20;61.60;;;;;;31993192;27;20059;-49
2021/10/24 15:59:29;;;;;;;16.05;6.93;;;23.20;60.90;;;;;;31980582;27;20103;-44
2021/10/24 16:14:31;;;;;;;16.65;7.43;;;23.20;62.00;;;;;;31962371;27;20039;-46
2021/10/24 16:29:33;;;;;;;13.45;5.80;;;23.20;63.10;;;;;;31967485;27;20031;-46
2021/10/24 16:44:35;;;;;;;44.92;23.52;;;23.10;62.90;;;;;;31935193;27;20062;-43
2021/10/24 16:59:39;;;;;;;144.98;69.05;;;23.10;62.60;;;;;;31592405;27;10000240;-52
2021/10/24 17:14:42;;;;;;;223.75;111.57;;;23.00;62.80;;;;;;31978370;27;20066;-54
2021/10/24 17:29:44;;;;;;;233.30;120.22;;;23.10;62.80;;;;;;31962666;27;20150;-52
2021/10/24 17:44:46;;;;;;;222.90;114.32;;;23.00;62.60;;;;;;31960882;27;20059;-52
2021/10/24 17:59:48;;;;;;;190.30;98.25;;;23.00;62.80;;;;;;31976640;27;20094;-51
2021/10/24 18:14:50;;;;;;;182.48;89.50;;;23.10;62.80;;;;;;31972552;27;20039;-54
2021/10/24 18:29:52;;;;;;;165.82;80.82;;;23.00;62.90;;;;;;31950997;27;20054;-53
2021/10/24 18:44:54;;;;;;;145.70;69.63;;;23.00;63.70;;;;;;31965570;27;20047;-51
2021/10/24 18:59:57;;;;;;;122.53;59.55;;;23.00;62.40;;;;;;31942049;27;20031;-56
2021/10/24 19:14:59;;;;;;;29.25;19.77;;;23.00;63.40;;;;;;31918931;27;20040;-53
2021/10/24 19:30:02;;;;;;;5.93;4.15;;;22.70;58.20;;;;;;31965147;27;20051;-49
2021/10/24 19:45:05;;;;;;;4.50;2.30;;;22.50;55.10;;;;;;31921513;28;20055;-46
2021/10/24 20:00:08;;;;;;;8.93;5.95;;;23.20;52.10;;;;;;31923026;28;20043;-48
2021/10/24 20:15:11;;;;;;;3.60;1.60;;;23.30;52.70;;;;;;31981460;27;20081;-49
2021/10/24 20:30:14;;;;;;;0.32;0.32;;;23.40;54.60;;;;;;31946262;27;20067;-48
2021/10/24 20:45:17;;;;;;;0.10;0.10;;;23.40;56.00;;;;;;31564326;27;9999969;-51
2021/10/24 21:00:19;;;;;;;0.10;0.10;;;23.30;56.90;;;;;;32432969;22;20118;-49
2021/10/24 21:15:21;;;;;;;16.13;9.75;;;23.20;57.60;;;;;;32014170;27;20084;-45
2021/10/24 21:30:23;;;;;;;9.40;7.00;;;23.00;50.20;;;;;;32009778;27;20103;-44
2021/10/24 21:45:25;;;;;;;12.35;7.82;;;22.90;47.10;;;;;;32003714;27;20047;-58
2021/10/24 22:00:35;;;;;;;15.43;7.80;;;22.70;49.10;;;;;;31934867;27;20087;-57
2021/10/24 22:15:37;;;;;;;18.58;8.13;;;22.90;51.20;;;;;;31942992;27;20051;-45
2021/10/24 22:30:39;;;;;;;17.48;6.70;;;22.90;52.40;;;;;;31948813;27;20108;-44
2021/10/24 22:45:41;;;;;;;12.05;6.65;;;22.90;53.30;;;;;;31950293;27;20043;-43
2021/10/24 23:00:44;;;;;;;13.80;6.68;;;22.90;54.20;;;;;;31961777;27;20055;-43
2021/10/24 23:15:46;;;;;;;9.82;6.57;;;22.80;54.60;;;;;;31947596;27;20046;-51
2021/10/24 23:30:48;;;;;;;8.82;5.72;;;22.80;55.00;;;;;;31922267;28;20043;-45
2021/10/24 23:45:50;;;;;;;13.48;5.68;;;22.70;55.60;;;;;;31977454;27;20616;-45
